EDV25 KMIA-KSAV
Flight info
| Callsign | EDV25 |
|---|---|
| Flight time | 1h 26m |
| Altitude | 35000 |
| Route | ALTNN2 DUCEN Q87 VIYAP DCT |
| Aircraft | CRJ9/M-SDFGIRWY/S |
Departure
| Time | 2026-04-25 07:58 |
|---|---|
| Airport | Miami International Airport (KMIA) |
Arrival
| Time | 2026-04-25 09:24 |
|---|---|
| Airport | Savannah Hilton Head International Airport (KSAV) |
| Time | Latitude | Longitude | Altitude | Speed | Heading |
|---|---|---|---|---|---|
| 2026-04-25 07:11 | 25.79300 | -80.28171 | 19 ft | 0 kts | 171° |
| 2026-04-25 07:45 | 25.79316 | -80.28173 | 20 ft | 4 kts | 175° |
| 2026-04-25 07:45 | 25.79343 | -80.28172 | 19 ft | 4 kts | 188° |
| 2026-04-25 07:45 | 25.79367 | -80.28163 | 20 ft | 4 kts | 218° |
| 2026-04-25 07:45 | 25.79376 | -80.28146 | 19 ft | 0 kts | 256° |
| 2026-04-25 07:47 | 25.79376 | -80.28148 | 19 ft | 2 kts | 256° |
| 2026-04-25 07:47 | 25.79371 | -80.28176 | 21 ft | 5 kts | 263° |
| 2026-04-25 07:48 | 25.79362 | -80.28224 | 18 ft | 7 kts | 243° |
| 2026-04-25 07:48 | 25.79334 | -80.28274 | 18 ft | 8 kts | 230° |
| 2026-04-25 07:48 | 25.79292 | -80.28318 | 19 ft | 8 kts | 223° |
| 2026-04-25 07:48 | 25.79250 | -80.28361 | 18 ft | 8 kts | 222° |
| 2026-04-25 07:49 | 25.79199 | -80.28397 | 17 ft | 9 kts | 198° |
| 2026-04-25 07:49 | 25.79135 | -80.28428 | 15 ft | 11 kts | 211° |
| 2026-04-25 07:49 | 25.79072 | -80.28472 | 15 ft | 12 kts | 213° |
| 2026-04-25 07:49 | 25.79004 | -80.28523 | 15 ft | 11 kts | 214° |
| 2026-04-25 07:50 | 25.78938 | -80.28573 | 15 ft | 11 kts | 215° |
| 2026-04-25 07:50 | 25.78882 | -80.28633 | 16 ft | 11 kts | 254° |
| 2026-04-25 07:50 | 25.78872 | -80.28723 | 13 ft | 12 kts | 269° |
| 2026-04-25 07:50 | 25.78869 | -80.28819 | 13 ft | 12 kts | 266° |
| 2026-04-25 07:51 | 25.78859 | -80.28902 | 14 ft | 9 kts | 247° |
| 2026-04-25 07:51 | 25.78838 | -80.28956 | 16 ft | 5 kts | 247° |
| 2026-04-25 07:51 | 25.78833 | -80.28972 | 15 ft | 2 kts | 257° |
| 2026-04-25 07:51 | 25.78827 | -80.29018 | 15 ft | 10 kts | 263° |
| 2026-04-25 07:52 | 25.78821 | -80.29107 | 14 ft | 13 kts | 268° |
| 2026-04-25 07:52 | 25.78817 | -80.29213 | 14 ft | 15 kts | 266° |
| 2026-04-25 07:52 | 25.78812 | -80.29328 | 15 ft | 15 kts | 267° |
| 2026-04-25 07:52 | 25.78807 | -80.29447 | 17 ft | 16 kts | 267° |
| 2026-04-25 07:53 | 25.78802 | -80.29571 | 17 ft | 17 kts | 267° |
| 2026-04-25 07:53 | 25.78797 | -80.29706 | 17 ft | 18 kts | 267° |
| 2026-04-25 07:53 | 25.78812 | -80.29838 | 17 ft | 18 kts | 329° |
| 2026-04-25 07:53 | 25.78871 | -80.29934 | 19 ft | 16 kts | 265° |
| 2026-04-25 07:54 | 25.78864 | -80.30066 | 18 ft | 19 kts | 268° |
| 2026-04-25 07:54 | 25.78858 | -80.30221 | 15 ft | 21 kts | 268° |
| 2026-04-25 07:54 | 25.78852 | -80.30389 | 16 ft | 22 kts | 268° |
| 2026-04-25 07:54 | 25.78842 | -80.30558 | 15 ft | 22 kts | 266° |
| 2026-04-25 07:55 | 25.78836 | -80.30732 | 13 ft | 23 kts | 267° |
| 2026-04-25 07:55 | 25.78829 | -80.30901 | 15 ft | 21 kts | 267° |
| 2026-04-25 07:55 | 25.78822 | -80.31061 | 16 ft | 21 kts | 267° |
| 2026-04-25 07:55 | 25.78816 | -80.31221 | 16 ft | 21 kts | 267° |
| 2026-04-25 07:56 | 25.78809 | -80.31376 | 17 ft | 20 kts | 267° |
| 2026-04-25 07:56 | 25.78750 | -80.31475 | 16 ft | 14 kts | 184° |
| 2026-04-25 07:56 | 25.78657 | -80.31465 | 13 ft | 14 kts | 172° |
| 2026-04-25 07:56 | 25.78600 | -80.31408 | 14 ft | 6 kts | 102° |
| 2026-04-25 07:57 | 25.78610 | -80.31363 | 14 ft | 8 kts | 57° |
| 2026-04-25 07:57 | 25.78623 | -80.31242 | 17 ft | 35 kts | 87° |
| 2026-04-25 07:57 | 25.78645 | -80.30708 | 19 ft | 102 kts | 87° |
| 2026-04-25 07:57 | 25.78686 | -80.29692 | 17 ft | 157 kts | 88° |
| 2026-04-25 07:58 | 25.78737 | -80.28336 | 196 ft | 186 kts | 88° |
| 2026-04-25 07:58 | 25.78781 | -80.26871 | 704 ft | 199 kts | 90° |
| 2026-04-25 07:58 | 25.78814 | -80.25298 | 1457 ft | 208 kts | 89° |
| 2026-04-25 07:58 | 25.78880 | -80.23671 | 2325 ft | 211 kts | 87° |
| 2026-04-25 07:59 | 25.78956 | -80.22026 | 3116 ft | 221 kts | 88° |
| 2026-04-25 07:59 | 25.78986 | -80.20229 | 3601 ft | 242 kts | 90° |
| 2026-04-25 07:59 | 25.78963 | -80.18346 | 4454 ft | 245 kts | 88° |
| 2026-04-25 07:59 | 25.79371 | -80.16496 | 4935 ft | 252 kts | 63° |
| 2026-04-25 08:00 | 25.80452 | -80.14954 | 4956 ft | 267 kts | 39° |
| 2026-04-25 08:00 | 25.82133 | -80.13984 | 5028 ft | 279 kts | 14° |
| 2026-04-25 08:00 | 25.84071 | -80.13928 | 5430 ft | 276 kts | 352° |
| 2026-04-25 08:00 | 25.85918 | -80.14384 | 5886 ft | 276 kts | 347° |
| 2026-04-25 08:01 | 25.87865 | -80.15019 | 5589 ft | 304 kts | 342° |
| 2026-04-25 08:01 | 25.89820 | -80.15810 | 6330 ft | 294 kts | 338° |
| 2026-04-25 08:01 | 25.91649 | -80.16659 | 7198 ft | 287 kts | 338° |
| 2026-04-25 08:01 | 25.93618 | -80.17534 | 6798 ft | 324 kts | 339° |
| 2026-04-25 08:02 | 25.95090 | -80.18159 | 6263 ft | 356 kts | 340° |
| 2026-04-25 08:02 | 25.97338 | -80.19084 | 6112 ft | 373 kts | 340° |
| 2026-04-25 08:02 | 25.99692 | -80.20002 | 7007 ft | 340 kts | 343° |
| 2026-04-25 08:02 | 26.01885 | -80.20666 | 7814 ft | 319 kts | 346° |
| 2026-04-25 08:03 | 26.04118 | -80.21152 | 7467 ft | 335 kts | 350° |
| 2026-04-25 08:03 | 26.06404 | -80.21503 | 7859 ft | 318 kts | 355° |
| 2026-04-25 08:03 | 26.08453 | -80.21597 | 8923 ft | 282 kts | 358° |
| 2026-04-25 08:03 | 26.10412 | -80.21631 | 9051 ft | 286 kts | 358° |
| 2026-04-25 08:04 | 26.12487 | -80.21696 | 8629 ft | 306 kts | 358° |
| 2026-04-25 08:04 | 26.14605 | -80.21712 | 8929 ft | 297 kts | 359° |
| 2026-04-25 08:04 | 26.16655 | -80.21706 | 9399 ft | 300 kts | 359° |
| 2026-04-25 08:04 | 26.18758 | -80.21660 | 10231 ft | 299 kts | 0° |
| 2026-04-25 08:05 | 26.20791 | -80.21573 | 11385 ft | 286 kts | 359° |
| 2026-04-25 08:05 | 26.22792 | -80.21513 | 11755 ft | 306 kts | 359° |
| 2026-04-25 08:05 | 26.25145 | -80.21498 | 10844 ft | 367 kts | 358° |
| 2026-04-25 08:05 | 26.27720 | -80.21579 | 11724 ft | 359 kts | 355° |
| 2026-04-25 08:06 | 26.30206 | -80.21690 | 12788 ft | 359 kts | 355° |
| 2026-04-25 08:06 | 26.32715 | -80.21831 | 13296 ft | 368 kts | 354° |
| 2026-04-25 08:06 | 26.35257 | -80.21990 | 14245 ft | 361 kts | 354° |
| 2026-04-25 08:06 | 26.37710 | -80.22181 | 15444 ft | 346 kts | 353° |
| 2026-04-25 08:07 | 26.40098 | -80.22319 | 16436 ft | 341 kts | 354° |
| 2026-04-25 08:07 | 26.42494 | -80.22418 | 16989 ft | 347 kts | 354° |
| 2026-04-25 08:07 | 26.44908 | -80.22538 | 17783 ft | 343 kts | 354° |
| 2026-04-25 08:07 | 26.47249 | -80.22654 | 18579 ft | 340 kts | 354° |
| 2026-04-25 08:08 | 26.49637 | -80.22745 | 19062 ft | 344 kts | 353° |
| 2026-04-25 08:08 | 26.52021 | -80.22897 | 19713 ft | 340 kts | 351° |
| 2026-04-25 08:08 | 26.54320 | -80.23152 | 20588 ft | 329 kts | 349° |
| 2026-04-25 08:08 | 26.56599 | -80.23384 | 21287 ft | 326 kts | 350° |
| 2026-04-25 08:09 | 26.58886 | -80.23636 | 21577 ft | 336 kts | 349° |
| 2026-04-25 08:09 | 26.61210 | -80.23878 | 21963 ft | 340 kts | 350° |
| 2026-04-25 08:09 | 26.63549 | -80.24125 | 22722 ft | 332 kts | 349° |
| 2026-04-25 08:09 | 26.65855 | -80.24384 | 23258 ft | 333 kts | 349° |
| 2026-04-25 08:10 | 26.68164 | -80.24705 | 23510 ft | 341 kts | 347° |
| 2026-04-25 08:10 | 26.70574 | -80.25147 | 23412 ft | 357 kts | 344° |
| 2026-04-25 08:10 | 26.73001 | -80.25722 | 23925 ft | 352 kts | 343° |
| 2026-04-25 08:10 | 26.75350 | -80.26296 | 24472 ft | 349 kts | 343° |
| 2026-04-25 08:11 | 26.77722 | -80.26945 | 24749 ft | 352 kts | 339° |
| 2026-04-25 08:11 | 26.80091 | -80.27777 | 24872 ft | 360 kts | 336° |
| 2026-04-25 08:11 | 26.82459 | -80.28779 | 25112 ft | 363 kts | 334° |
| 2026-04-25 08:11 | 26.84778 | -80.29828 | 25784 ft | 353 kts | 334° |
| 2026-04-25 08:12 | 26.87010 | -80.30847 | 26354 ft | 349 kts | 333° |
| 2026-04-25 08:12 | 26.89280 | -80.31871 | 26621 ft | 353 kts | 334° |
| 2026-04-25 08:12 | 26.91598 | -80.32941 | 26439 ft | 370 kts | 332° |
| 2026-04-25 08:12 | 26.93967 | -80.34205 | 26391 ft | 380 kts | 330° |
| 2026-04-25 08:13 | 26.96352 | -80.35508 | 26577 ft | 387 kts | 330° |
| 2026-04-25 08:13 | 26.98806 | -80.36876 | 26763 ft | 390 kts | 330° |
| 2026-04-25 08:13 | 27.01204 | -80.38223 | 27403 ft | 385 kts | 329° |
| 2026-04-25 08:14 | 27.06047 | -80.40922 | 28096 ft | 385 kts | 332° |
| 2026-04-25 08:14 | 27.08511 | -80.42026 | 28783 ft | 379 kts | 336° |
| 2026-04-25 08:14 | 27.10988 | -80.42966 | 29029 ft | 382 kts | 337° |
| 2026-04-25 08:15 | 27.16147 | -80.44875 | 29313 ft | 392 kts | 338° |
| 2026-04-25 08:15 | 27.18762 | -80.45780 | 29741 ft | 391 kts | 339° |
| 2026-04-25 08:15 | 27.21359 | -80.46672 | 29922 ft | 394 kts | 339° |
| 2026-04-25 08:15 | 27.23960 | -80.47580 | 30403 ft | 387 kts | 338° |
| 2026-04-25 08:16 | 27.26509 | -80.48515 | 30904 ft | 380 kts | 337° |
| 2026-04-25 08:16 | 27.28990 | -80.49518 | 31188 ft | 379 kts | 334° |
| 2026-04-25 08:16 | 27.31438 | -80.50643 | 31271 ft | 382 kts | 332° |
| 2026-04-25 08:16 | 27.33891 | -80.51794 | 31501 ft | 383 kts | 333° |
| 2026-04-25 08:17 | 27.36352 | -80.52883 | 31677 ft | 386 kts | 337° |
| 2026-04-25 08:17 | 27.41556 | -80.54749 | 31932 ft | 392 kts | 338° |
| 2026-04-25 08:17 | 27.44152 | -80.55683 | 32342 ft | 387 kts | 338° |
| 2026-04-25 08:18 | 27.46704 | -80.56595 | 32755 ft | 383 kts | 338° |
| 2026-04-25 08:18 | 27.49197 | -80.57477 | 33174 ft | 378 kts | 338° |
| 2026-04-25 08:18 | 27.51694 | -80.58347 | 33534 ft | 373 kts | 338° |
| 2026-04-25 08:18 | 27.54179 | -80.59242 | 33694 ft | 374 kts | 336° |
| 2026-04-25 08:19 | 27.56648 | -80.60228 | 33777 ft | 376 kts | 334° |
| 2026-04-25 08:19 | 27.59002 | -80.61384 | 34110 ft | 368 kts | 328° |
| 2026-04-25 08:19 | 27.61267 | -80.62702 | 34371 ft | 365 kts | 329° |
| 2026-04-25 08:20 | 27.65839 | -80.65210 | 34680 ft | 361 kts | 330° |
| 2026-04-25 08:20 | 27.70378 | -80.67648 | 34864 ft | 360 kts | 330° |
| 2026-04-25 08:21 | 27.74900 | -80.70057 | 34918 ft | 355 kts | 330° |
| 2026-04-25 08:21 | 27.79359 | -80.72402 | 34844 ft | 352 kts | 332° |
| 2026-04-25 08:22 | 27.83866 | -80.74560 | 34804 ft | 358 kts | 333° |
| 2026-04-25 08:22 | 27.88508 | -80.76771 | 34934 ft | 363 kts | 333° |
| 2026-04-25 08:22 | 27.90847 | -80.77895 | 34766 ft | 368 kts | 332° |
| 2026-04-25 08:23 | 27.93184 | -80.79052 | 34917 ft | 366 kts | 332° |
| 2026-04-25 08:23 | 27.97903 | -80.81308 | 34927 ft | 375 kts | 335° |
| 2026-04-25 08:24 | 28.02833 | -80.83351 | 34788 ft | 382 kts | 336° |
| 2026-04-25 08:24 | 28.05340 | -80.84360 | 34983 ft | 377 kts | 337° |
| 2026-04-25 08:24 | 28.07796 | -80.85315 | 34977 ft | 379 kts | 337° |
| 2026-04-25 08:25 | 28.12886 | -80.87175 | 34932 ft | 391 kts | 340° |
| 2026-04-25 08:25 | 28.15522 | -80.88007 | 35063 ft | 391 kts | 341° |
| 2026-04-25 08:25 | 28.18158 | -80.88810 | 35183 ft | 392 kts | 341° |
| 2026-04-25 08:26 | 28.23461 | -80.90414 | 35070 ft | 401 kts | 341° |
| 2026-04-25 08:26 | 28.28815 | -80.92061 | 34980 ft | 393 kts | 341° |
| 2026-04-25 08:27 | 28.34022 | -80.93579 | 35058 ft | 381 kts | 342° |
| 2026-04-25 08:27 | 28.39148 | -80.94999 | 34966 ft | 373 kts | 342° |
| 2026-04-25 08:28 | 28.44094 | -80.96471 | 34889 ft | 364 kts | 340° |
| 2026-04-25 08:28 | 28.46521 | -80.97306 | 34767 ft | 363 kts | 339° |
| 2026-04-25 08:28 | 28.48940 | -80.98174 | 34568 ft | 364 kts | 339° |
| 2026-04-25 08:29 | 28.53784 | -80.99881 | 34365 ft | 365 kts | 339° |
| 2026-04-25 08:29 | 28.58609 | -81.01636 | 34438 ft | 368 kts | 339° |
| 2026-04-25 08:29 | 28.61054 | -81.02535 | 34560 ft | 367 kts | 339° |
| 2026-04-25 08:30 | 28.63493 | -81.03423 | 34683 ft | 367 kts | 339° |
| 2026-04-25 08:30 | 28.68382 | -81.05203 | 34798 ft | 370 kts | 339° |
| 2026-04-25 08:30 | 28.70799 | -81.06115 | 34946 ft | 369 kts | 339° |
| 2026-04-25 08:31 | 28.73231 | -81.07039 | 35110 ft | 367 kts | 339° |
| 2026-04-25 08:31 | 28.75657 | -81.07964 | 34980 ft | 367 kts | 339° |
| 2026-04-25 08:31 | 28.78072 | -81.08890 | 34972 ft | 366 kts | 338° |
| 2026-04-25 08:31 | 28.80518 | -81.09822 | 34662 ft | 374 kts | 339° |
| 2026-04-25 08:32 | 28.82975 | -81.10760 | 34612 ft | 379 kts | 338° |
| 2026-04-25 08:32 | 28.88024 | -81.12766 | 34819 ft | 382 kts | 338° |
| 2026-04-25 08:33 | 28.93078 | -81.14814 | 34830 ft | 386 kts | 339° |
| 2026-04-25 08:33 | 28.98155 | -81.16834 | 34823 ft | 392 kts | 338° |
| 2026-04-25 08:33 | 29.00741 | -81.17875 | 34926 ft | 395 kts | 338° |
| 2026-04-25 08:34 | 29.03358 | -81.18927 | 34976 ft | 398 kts | 337° |
| 2026-04-25 08:34 | 29.05899 | -81.20098 | 35095 ft | 397 kts | 334° |
| 2026-04-25 08:34 | 29.08461 | -81.21358 | 34918 ft | 401 kts | 331° |
| 2026-04-25 08:35 | 29.13418 | -81.24418 | 34838 ft | 409 kts | 328° |
| 2026-04-25 08:35 | 29.15868 | -81.26010 | 34996 ft | 409 kts | 331° |
| 2026-04-25 08:35 | 29.18542 | -81.27263 | 34763 ft | 419 kts | 338° |
| 2026-04-25 08:36 | 29.24029 | -81.29548 | 34885 ft | 420 kts | 339° |
| 2026-04-25 08:36 | 29.26824 | -81.30621 | 34783 ft | 424 kts | 341° |
| 2026-04-25 08:36 | 29.29633 | -81.31490 | 34809 ft | 425 kts | 343° |
| 2026-04-25 08:36 | 29.32507 | -81.32277 | 34954 ft | 422 kts | 345° |
| 2026-04-25 08:37 | 29.35383 | -81.33038 | 34879 ft | 423 kts | 345° |
| 2026-04-25 08:37 | 29.38267 | -81.33811 | 34772 ft | 426 kts | 345° |
| 2026-04-25 08:37 | 29.41164 | -81.34584 | 34845 ft | 428 kts | 346° |
| 2026-04-25 08:38 | 29.47116 | -81.35341 | 34876 ft | 437 kts | 357° |
| 2026-04-25 08:38 | 29.50140 | -81.35369 | 35092 ft | 433 kts | 357° |
| 2026-04-25 08:38 | 29.53184 | -81.35380 | 34964 ft | 440 kts | 358° |
| 2026-04-25 08:39 | 29.59335 | -81.35297 | 34919 ft | 447 kts | 358° |
| 2026-04-25 08:39 | 29.65583 | -81.35270 | 35064 ft | 443 kts | 358° |
| 2026-04-25 08:39 | 29.68689 | -81.35281 | 34797 ft | 449 kts | 358° |
| 2026-04-25 08:40 | 29.71768 | -81.35312 | 34906 ft | 445 kts | 358° |
| 2026-04-25 08:40 | 29.77852 | -81.35345 | 34832 ft | 432 kts | 358° |
| 2026-04-25 08:41 | 29.83768 | -81.35403 | 34926 ft | 416 kts | 358° |
| 2026-04-25 08:41 | 29.89492 | -81.35383 | 34754 ft | 413 kts | 358° |
| 2026-04-25 08:42 | 29.95319 | -81.35434 | 34649 ft | 423 kts | 357° |
| 2026-04-25 08:42 | 30.01237 | -81.35653 | 34634 ft | 431 kts | 356° |
| 2026-04-25 08:42 | 30.04224 | -81.35778 | 34820 ft | 425 kts | 356° |
| 2026-04-25 08:43 | 30.07186 | -81.35902 | 34857 ft | 428 kts | 356° |
| 2026-04-25 08:43 | 30.13132 | -81.36221 | 34913 ft | 432 kts | 355° |
| 2026-04-25 08:44 | 30.19185 | -81.36606 | 34899 ft | 437 kts | 355° |
| 2026-04-25 08:44 | 30.25295 | -81.37132 | 35050 ft | 440 kts | 353° |
| 2026-04-25 08:45 | 30.31362 | -81.37768 | 35149 ft | 440 kts | 354° |
| 2026-04-25 08:45 | 30.37446 | -81.38320 | 35418 ft | 432 kts | 354° |
| 2026-04-25 08:46 | 30.43383 | -81.38777 | 35311 ft | 422 kts | 355° |
| 2026-04-25 08:46 | 30.46274 | -81.38983 | 35046 ft | 421 kts | 355° |
| 2026-04-25 08:46 | 30.49208 | -81.39186 | 34698 ft | 422 kts | 355° |
| 2026-04-25 08:46 | 30.52146 | -81.39388 | 34455 ft | 419 kts | 356° |
| 2026-04-25 08:47 | 30.55036 | -81.39541 | 34482 ft | 410 kts | 356° |
| 2026-04-25 08:47 | 30.57881 | -81.39639 | 33887 ft | 413 kts | 359° |
| 2026-04-25 08:47 | 30.60806 | -81.39693 | 32667 ft | 434 kts | 358° |
| 2026-04-25 08:47 | 30.63849 | -81.39766 | 32299 ft | 435 kts | 358° |
| 2026-04-25 08:48 | 30.66856 | -81.39829 | 32274 ft | 428 kts | 358° |
| 2026-04-25 08:48 | 30.69828 | -81.39881 | 32055 ft | 425 kts | 358° |
| 2026-04-25 08:48 | 30.72758 | -81.39939 | 31801 ft | 416 kts | 358° |
| 2026-04-25 08:48 | 30.75610 | -81.40011 | 31376 ft | 413 kts | 358° |
| 2026-04-25 08:49 | 30.78490 | -81.40100 | 30832 ft | 413 kts | 357° |
| 2026-04-25 08:49 | 30.81358 | -81.40221 | 30479 ft | 408 kts | 356° |
| 2026-04-25 08:49 | 30.83228 | -81.40321 | 30292 ft | 404 kts | 356° |
| 2026-04-25 08:49 | 30.86938 | -81.40591 | 29659 ft | 402 kts | 355° |
| 2026-04-25 08:50 | 30.89734 | -81.40826 | 29069 ft | 402 kts | 354° |
| 2026-04-25 08:50 | 30.92525 | -81.41084 | 28534 ft | 402 kts | 354° |
| 2026-04-25 08:50 | 30.94374 | -81.41262 | 28256 ft | 400 kts | 354° |
| 2026-04-25 08:50 | 30.97139 | -81.41517 | 27773 ft | 398 kts | 354° |
| 2026-04-25 08:51 | 30.99903 | -81.41780 | 27359 ft | 394 kts | 354° |
| 2026-04-25 08:51 | 31.02620 | -81.42067 | 26966 ft | 390 kts | 354° |
| 2026-04-25 08:51 | 31.05325 | -81.42319 | 26602 ft | 387 kts | 355° |
| 2026-04-25 08:51 | 31.07975 | -81.42443 | 26223 ft | 384 kts | 357° |
| 2026-04-25 08:52 | 31.10638 | -81.42503 | 25855 ft | 381 kts | 357° |
| 2026-04-25 08:52 | 31.13303 | -81.42607 | 25648 ft | 382 kts | 355° |
| 2026-04-25 08:52 | 31.15946 | -81.42749 | 25609 ft | 380 kts | 356° |
| 2026-04-25 08:52 | 31.18587 | -81.42886 | 25464 ft | 376 kts | 355° |
| 2026-04-25 08:53 | 31.21142 | -81.43069 | 25122 ft | 369 kts | 355° |
| 2026-04-25 08:53 | 31.23721 | -81.43182 | 24605 ft | 371 kts | 358° |
| 2026-04-25 08:53 | 31.26292 | -81.43097 | 24246 ft | 369 kts | 1° |
| 2026-04-25 08:53 | 31.28875 | -81.42912 | 23797 ft | 371 kts | 2° |
| 2026-04-25 08:54 | 31.31423 | -81.42688 | 23634 ft | 361 kts | 4° |
| 2026-04-25 08:54 | 31.33867 | -81.42148 | 23257 ft | 356 kts | 14° |
| 2026-04-25 08:54 | 31.36189 | -81.41193 | 22727 ft | 359 kts | 20° |
| 2026-04-25 08:54 | 31.38501 | -81.40054 | 22452 ft | 359 kts | 20° |
| 2026-04-25 08:55 | 31.40837 | -81.39092 | 22385 ft | 351 kts | 15° |
| 2026-04-25 08:55 | 31.43169 | -81.38293 | 22189 ft | 346 kts | 12° |
| 2026-04-25 08:55 | 31.45527 | -81.37676 | 21828 ft | 347 kts | 10° |
| 2026-04-25 08:55 | 31.47882 | -81.37066 | 21613 ft | 348 kts | 11° |
| 2026-04-25 08:56 | 31.50234 | -81.36484 | 21342 ft | 350 kts | 8° |
| 2026-04-25 08:56 | 31.52647 | -81.36138 | 21175 ft | 348 kts | 1° |
| 2026-04-25 08:56 | 31.55063 | -81.36078 | 21032 ft | 345 kts | 356° |
| 2026-04-25 08:56 | 31.57474 | -81.36147 | 20894 ft | 344 kts | 356° |
| 2026-04-25 08:57 | 31.59831 | -81.36145 | 20829 ft | 341 kts | 3° |
| 2026-04-25 08:57 | 31.62191 | -81.35706 | 20666 ft | 344 kts | 12° |
| 2026-04-25 08:57 | 31.64511 | -81.34939 | 20332 ft | 346 kts | 13° |
| 2026-04-25 08:57 | 31.66872 | -81.34388 | 19980 ft | 346 kts | 4° |
| 2026-04-25 08:58 | 31.69232 | -81.34143 | 19808 ft | 342 kts | 4° |
| 2026-04-25 08:58 | 31.71562 | -81.33687 | 19607 ft | 339 kts | 9° |
| 2026-04-25 08:58 | 31.73866 | -81.33032 | 19233 ft | 339 kts | 12° |
| 2026-04-25 08:58 | 31.76107 | -81.32391 | 19020 ft | 334 kts | 8° |
| 2026-04-25 08:59 | 31.78402 | -81.32004 | 18739 ft | 331 kts | 4° |
| 2026-04-25 08:59 | 31.80661 | -81.31732 | 18440 ft | 329 kts | 4° |
| 2026-04-25 08:59 | 31.82929 | -81.31383 | 18052 ft | 329 kts | 7° |
| 2026-04-25 08:59 | 31.85181 | -81.30853 | 17632 ft | 330 kts | 10° |
| 2026-04-25 09:00 | 31.87407 | -81.30210 | 17246 ft | 326 kts | 12° |
| 2026-04-25 09:00 | 31.89585 | -81.29510 | 16893 ft | 322 kts | 12° |
| 2026-04-25 09:00 | 31.91767 | -81.28942 | 16507 ft | 318 kts | 6° |
| 2026-04-25 09:00 | 31.93952 | -81.28593 | 16149 ft | 315 kts | 5° |
| 2026-04-25 09:01 | 31.96122 | -81.28322 | 15786 ft | 313 kts | 2° |
| 2026-04-25 09:01 | 31.98264 | -81.28123 | 15422 ft | 310 kts | 3° |
| 2026-04-25 09:01 | 32.00382 | -81.27809 | 15275 ft | 302 kts | 8° |
| 2026-04-25 09:01 | 32.02439 | -81.27285 | 14930 ft | 302 kts | 11° |
| 2026-04-25 09:02 | 32.04493 | -81.26682 | 14488 ft | 305 kts | 12° |
| 2026-04-25 09:02 | 32.06538 | -81.26012 | 14122 ft | 304 kts | 14° |
| 2026-04-25 09:02 | 32.08515 | -81.25290 | 13764 ft | 296 kts | 15° |
| 2026-04-25 09:02 | 32.10467 | -81.24632 | 13491 ft | 285 kts | 11° |
| 2026-04-25 09:03 | 32.12393 | -81.24294 | 13126 ft | 277 kts | 2° |
| 2026-04-25 09:03 | 32.14324 | -81.24202 | 12630 ft | 276 kts | 1° |
| 2026-04-25 09:03 | 32.16247 | -81.24092 | 12120 ft | 277 kts | 2° |
| 2026-04-25 09:03 | 32.18174 | -81.23973 | 11640 ft | 277 kts | 2° |
| 2026-04-25 09:04 | 32.20102 | -81.23835 | 11369 ft | 274 kts | 4° |
| 2026-04-25 09:04 | 32.21945 | -81.23570 | 11289 ft | 265 kts | 8° |
| 2026-04-25 09:04 | 32.23724 | -81.23239 | 11180 ft | 253 kts | 8° |
| 2026-04-25 09:04 | 32.25454 | -81.22923 | 10871 ft | 252 kts | 7° |
| 2026-04-25 09:05 | 32.27155 | -81.22321 | 10199 ft | 262 kts | 27° |
| 2026-04-25 09:05 | 32.28549 | -81.20959 | 9603 ft | 264 kts | 53° |
| 2026-04-25 09:05 | 32.29341 | -81.19038 | 9169 ft | 258 kts | 75° |
| 2026-04-25 09:05 | 32.29552 | -81.16958 | 8770 ft | 251 kts | 92° |
| 2026-04-25 09:06 | 32.29227 | -81.14958 | 8281 ft | 249 kts | 112° |
| 2026-04-25 09:06 | 32.28325 | -81.13208 | 7626 ft | 256 kts | 131° |
| 2026-04-25 09:06 | 32.27006 | -81.11870 | 7596 ft | 245 kts | 152° |
| 2026-04-25 09:06 | 32.25424 | -81.11206 | 7435 ft | 239 kts | 172° |
| 2026-04-25 09:07 | 32.23787 | -81.11356 | 6861 ft | 243 kts | 204° |
| 2026-04-25 09:07 | 32.22587 | -81.12765 | 6067 ft | 253 kts | 247° |
| 2026-04-25 09:07 | 32.22230 | -81.14739 | 5956 ft | 235 kts | 267° |
| 2026-04-25 09:07 | 32.22327 | -81.16634 | 5693 ft | 229 kts | 281° |
| 2026-04-25 09:08 | 32.22617 | -81.18463 | 5444 ft | 223 kts | 279° |
| 2026-04-25 09:08 | 32.22768 | -81.20178 | 5429 ft | 200 kts | 267° |
| 2026-04-25 09:08 | 32.22255 | -81.21636 | 5022 ft | 200 kts | 221° |
| 2026-04-25 09:08 | 32.20943 | -81.22058 | 4259 ft | 214 kts | 172° |
| 2026-04-25 09:09 | 32.19454 | -81.21399 | 3568 ft | 226 kts | 159° |
| 2026-04-25 09:09 | 32.18097 | -81.20580 | 3471 ft | 214 kts | 155° |
| 2026-04-25 09:09 | 32.16685 | -81.20020 | 3000 ft | 222 kts | 172° |
| 2026-04-25 09:09 | 32.15083 | -81.19865 | 2869 ft | 230 kts | 180° |
| 2026-04-25 09:10 | 32.13489 | -81.19842 | 2542 ft | 230 kts | 182° |
| 2026-04-25 09:10 | 32.11874 | -81.19903 | 2320 ft | 225 kts | 193° |
| 2026-04-25 09:10 | 32.10637 | -81.20711 | 2819 ft | 195 kts | 229° |
| 2026-04-25 09:10 | 32.10005 | -81.22185 | 2812 ft | 220 kts | 258° |
| 2026-04-25 09:11 | 32.10724 | -81.25776 | 3629 ft | 245 kts | 322° |
| 2026-04-25 09:11 | 32.12224 | -81.26783 | 3801 ft | 248 kts | 331° |
| 2026-04-25 09:11 | 32.13682 | -81.27637 | 3979 ft | 225 kts | 333° |
| 2026-04-25 09:12 | 32.15138 | -81.28292 | 3659 ft | 224 kts | 343° |
| 2026-04-25 09:12 | 32.16665 | -81.28595 | 3531 ft | 217 kts | 355° |
| 2026-04-25 09:12 | 32.18148 | -81.28681 | 3337 ft | 211 kts | 356° |
| 2026-04-25 09:12 | 32.19612 | -81.28708 | 3120 ft | 209 kts | 359° |
| 2026-04-25 09:13 | 32.20954 | -81.28288 | 3026 ft | 205 kts | 35° |
| 2026-04-25 09:13 | 32.21877 | -81.27004 | 2852 ft | 211 kts | 68° |
| 2026-04-25 09:13 | 32.22386 | -81.25357 | 2787 ft | 208 kts | 72° |
| 2026-04-25 09:13 | 32.22683 | -81.23772 | 2865 ft | 189 kts | 81° |
| 2026-04-25 09:14 | 32.22910 | -81.22246 | 2634 ft | 190 kts | 82° |
| 2026-04-25 09:14 | 32.23065 | -81.20712 | 2719 ft | 182 kts | 91° |
| 2026-04-25 09:14 | 32.22667 | -81.19376 | 2512 ft | 176 kts | 131° |
| 2026-04-25 09:14 | 32.21525 | -81.18956 | 1769 ft | 186 kts | 202° |
| 2026-04-25 09:15 | 32.20566 | -81.19886 | 1663 ft | 170 kts | 234° |
| 2026-04-25 09:15 | 32.19910 | -81.20936 | 1664 ft | 148 kts | 235° |
| 2026-04-25 09:15 | 32.19169 | -81.21742 | 1314 ft | 144 kts | 200° |
| 2026-04-25 09:15 | 32.18255 | -81.21796 | 1051 ft | 124 kts | 187° |
| 2026-04-25 09:16 | 32.17397 | -81.21716 | 684 ft | 139 kts | 166° |
| 2026-04-25 09:16 | 32.16440 | -81.21275 | 1025 ft | 144 kts | 166° |
| 2026-04-25 09:16 | 32.15508 | -81.20769 | 1437 ft | 162 kts | 159° |
| 2026-04-25 09:16 | 32.14292 | -81.20303 | 1623 ft | 205 kts | 171° |
| 2026-04-25 09:17 | 32.11504 | -81.19558 | 2133 ft | 203 kts | 170° |
| 2026-04-25 09:17 | 32.10166 | -81.19212 | 2107 ft | 195 kts | 176° |
| 2026-04-25 09:17 | 32.08869 | -81.19418 | 1873 ft | 189 kts | 219° |
| 2026-04-25 09:18 | 32.08137 | -81.20658 | 1755 ft | 189 kts | 251° |
| 2026-04-25 09:18 | 32.07846 | -81.22238 | 1812 ft | 202 kts | 259° |
| 2026-04-25 09:18 | 32.07685 | -81.23855 | 1917 ft | 197 kts | 266° |
| 2026-04-25 09:18 | 32.07706 | -81.25459 | 1914 ft | 198 kts | 281° |
| 2026-04-25 09:19 | 32.08302 | -81.26911 | 1966 ft | 201 kts | 309° |
| 2026-04-25 09:19 | 32.09513 | -81.27758 | 1875 ft | 210 kts | 340° |
| 2026-04-25 09:19 | 32.10957 | -81.27975 | 2023 ft | 205 kts | 352° |
| 2026-04-25 09:19 | 32.12390 | -81.28051 | 1797 ft | 203 kts | 355° |
| 2026-04-25 09:20 | 32.13780 | -81.28049 | 1917 ft | 190 kts | 358° |
| 2026-04-25 09:20 | 32.15002 | -81.27966 | 1857 ft | 169 kts | 0° |
| 2026-04-25 09:20 | 32.16151 | -81.27838 | 1877 ft | 162 kts | 357° |
| 2026-04-25 09:20 | 32.17259 | -81.27713 | 1860 ft | 157 kts | 2° |
| 2026-04-25 09:21 | 32.18320 | -81.27345 | 1616 ft | 168 kts | 32° |
| 2026-04-25 09:21 | 32.18768 | -81.26068 | 1379 ft | 177 kts | 91° |
| 2026-04-25 09:21 | 32.18640 | -81.24659 | 1338 ft | 168 kts | 99° |
| 2026-04-25 09:21 | 32.18644 | -81.23303 | 1313 ft | 157 kts | 84° |
| 2026-04-25 09:22 | 32.18791 | -81.22117 | 1215 ft | 142 kts | 87° |
| 2026-04-25 09:22 | 32.18555 | -81.21004 | 844 ft | 136 kts | 123° |
| 2026-04-25 09:22 | 32.17930 | -81.20221 | 754 ft | 132 kts | 147° |
| 2026-04-25 09:22 | 32.17114 | -81.19710 | 678 ft | 131 kts | 161° |
| 2026-04-25 09:23 | 32.16197 | -81.19724 | 569 ft | 133 kts | 196° |
| 2026-04-25 09:23 | 32.15354 | -81.19969 | 377 ft | 131 kts | 192° |
| 2026-04-25 09:23 | 32.14446 | -81.20018 | 229 ft | 128 kts | 178° |
| 2026-04-25 09:23 | 32.13582 | -81.20005 | 90 ft | 119 kts | 181° |
| 2026-04-25 09:24 | 32.12843 | -81.20009 | 37 ft | 92 kts | 180° |
| 2026-04-25 09:24 | 32.12316 | -81.20009 | 44 ft | 65 kts | 180° |
| 2026-04-25 09:24 | 32.11909 | -81.20001 | 44 ft | 37 kts | 178° |
| 2026-04-25 09:24 | 32.11710 | -81.20011 | 48 ft | 16 kts | 212° |
| 2026-04-25 09:25 | 32.11670 | -81.20098 | 50 ft | 0 kts | 267° |
| 2026-04-25 09:26 | 32.11670 | -81.20101 | 50 ft | 1 kts | 267° |
| 2026-04-25 09:26 | 32.11669 | -81.20123 | 51 ft | 3 kts | 267° |
| 2026-04-25 09:26 | 32.11682 | -81.20171 | 49 ft | 11 kts | 313° |
| 2026-04-25 09:26 | 32.11789 | -81.20193 | 52 ft | 19 kts | 358° |
| 2026-04-25 09:27 | 32.11921 | -81.20196 | 52 ft | 19 kts | 359° |
| 2026-04-25 09:27 | 32.12053 | -81.20196 | 51 ft | 19 kts | 359° |
| 2026-04-25 09:27 | 32.12189 | -81.20199 | 51 ft | 20 kts | 0° |
| 2026-04-25 09:27 | 32.12329 | -81.20199 | 51 ft | 20 kts | 360° |
| 2026-04-25 09:28 | 32.12470 | -81.20199 | 51 ft | 21 kts | 357° |
| 2026-04-25 09:28 | 32.12600 | -81.20263 | 51 ft | 20 kts | 329° |
| 2026-04-25 09:28 | 32.12726 | -81.20330 | 49 ft | 20 kts | 356° |
| 2026-04-25 09:28 | 32.12882 | -81.20333 | 41 ft | 24 kts | 1° |
| 2026-04-25 09:29 | 32.13029 | -81.20331 | 50 ft | 19 kts | 1° |
| 2026-04-25 09:29 | 32.13160 | -81.20330 | 51 ft | 19 kts | 359° |
| 2026-04-25 09:29 | 32.13293 | -81.20331 | 52 ft | 19 kts | 360° |
| 2026-04-25 09:29 | 32.13409 | -81.20334 | 52 ft | 13 kts | 347° |
| 2026-04-25 09:30 | 32.13445 | -81.20418 | 52 ft | 13 kts | 270° |
| 2026-04-25 09:30 | 32.13447 | -81.20523 | 52 ft | 13 kts | 271° |
| 2026-04-25 09:30 | 32.13450 | -81.20628 | 52 ft | 10 kts | 282° |
| 2026-04-25 09:30 | 32.13454 | -81.20636 | 48 ft | 0 kts | 319° |
| 2026-04-25 09:31 | 32.13473 | -81.20645 | 52 ft | 4 kts | 346° |
| 2026-04-25 09:31 | 32.13494 | -81.20648 | 52 ft | 5 kts | 1° |
| 2026-04-25 09:31 | 32.13511 | -81.20648 | 52 ft | 1 kts | 1° |
| 2026-04-25 09:31 | 32.13513 | -81.20647 | 52 ft | 0 kts | 1° |